createdAt,value
2022-10-09T00:00:18.463Z,5.50
2022-10-09T00:02:57.522Z,5.70
2022-10-09T00:05:31.676Z,4.80
2022-10-09T00:08:07.153Z,5.13
2022-10-09T00:10:42.840Z,5.77
2022-10-09T00:13:14.430Z,5.60
2022-10-09T00:15:51.381Z,5.40
2022-10-09T00:18:28.708Z,4.37
2022-10-09T00:21:00.383Z,4.30
2022-10-09T00:23:38.708Z,4.90
2022-10-09T00:26:08.176Z,4.37
2022-10-09T00:28:45.269Z,4.50
2022-10-09T00:31:15.217Z,4.60
2022-10-09T00:33:57.750Z,3.93
2022-10-09T00:36:30.628Z,4.60
2022-10-09T00:39:04.896Z,4.20
2022-10-09T00:41:34.988Z,3.83
2022-10-09T00:44:25.017Z,3.63
2022-10-09T00:46:53.844Z,4.60
2022-10-09T00:49:31.061Z,4.50
2022-10-09T00:52:03.661Z,4.43
2022-10-09T00:54:35.237Z,4.77
2022-10-09T00:57:06.458Z,4.80
2022-10-09T00:59:45.026Z,4.47
2022-10-09T01:02:21.916Z,4.53
2022-10-09T01:04:54.948Z,4.70
2022-10-09T01:07:33.313Z,5.00
2022-10-09T01:10:06.043Z,5.40
2022-10-09T01:12:49.116Z,6.57
2022-10-09T01:15:25.572Z,5.53
2022-10-09T01:18:01.735Z,5.30
2022-10-09T01:20:45.788Z,5.80
2022-10-09T01:23:37.626Z,5.33
2022-10-09T01:26:29.178Z,5.17
2022-10-09T01:29:07.987Z,5.10
2022-10-09T01:31:41.789Z,4.60
2022-10-09T01:34:11.795Z,4.40
2022-10-09T01:36:45.422Z,5.00
2022-10-09T01:39:26.136Z,5.27
2022-10-09T01:42:02.644Z,5.10
2022-10-09T01:44:38.427Z,5.53
2022-10-09T01:47:07.749Z,5.37
2022-10-09T01:49:52.830Z,5.40
2022-10-09T01:52:43.237Z,5.67
2022-10-09T01:55:27.509Z,4.40
2022-10-09T01:58:05.747Z,4.33
2022-10-09T02:00:40.781Z,4.47
2022-10-09T02:03:15.363Z,5.33
2022-10-09T02:05:47.053Z,5.60
2022-10-09T02:08:22.845Z,4.83
2022-10-09T02:11:00.190Z,4.83
2022-10-09T02:13:29.525Z,5.60
2022-10-09T02:16:12.287Z,5.10
2022-10-09T02:18:45.517Z,6.33
2022-10-09T02:21:22.380Z,5.17
2022-10-09T02:23:52.717Z,5.60
2022-10-09T02:26:34.232Z,5.20
2022-10-09T02:29:06.309Z,5.37
2022-10-09T02:31:39.274Z,5.20
2022-10-09T02:34:09.865Z,5.30
2022-10-09T02:36:39.393Z,5.13
2022-10-09T02:39:11.417Z,5.50
2022-10-09T02:41:40.235Z,5.23
2022-10-09T02:44:08.726Z,4.70
2022-10-09T02:46:41.418Z,5.17
2022-10-09T02:49:09.832Z,4.73
2022-10-09T02:51:38.691Z,5.20
2022-10-09T02:54:07.707Z,5.07
2022-10-09T02:56:38.965Z,4.73
2022-10-09T02:59:08.055Z,4.67
2022-10-09T03:01:38.528Z,4.30
2022-10-09T03:04:14.095Z,4.10
2022-10-09T03:06:47.068Z,4.60
2022-10-09T03:09:15.966Z,4.37
2022-10-09T03:11:44.614Z,4.50
2022-10-09T03:14:13.345Z,4.50
2022-10-09T03:16:48.559Z,4.37
2022-10-09T03:19:20.740Z,4.10
2022-10-09T03:21:53.100Z,4.20
2022-10-09T03:24:21.933Z,4.37
2022-10-09T03:26:50.738Z,4.53
2022-10-09T03:29:19.249Z,4.27
2022-10-09T03:31:53.400Z,4.23
2022-10-09T03:34:26.959Z,5.03
2022-10-09T03:37:01.760Z,4.30
2022-10-09T03:39:30.135Z,4.57
2022-10-09T03:41:58.439Z,4.63
2022-10-09T03:44:29.057Z,4.60
2022-10-09T03:46:59.590Z,3.67
2022-10-09T03:49:31.546Z,4.40
2022-10-09T03:52:02.399Z,4.20
2022-10-09T03:54:33.748Z,4.37
2022-10-09T03:57:02.371Z,4.00
2022-10-09T03:59:33.225Z,4.37
2022-10-09T04:02:08.876Z,2.77
2022-10-09T04:04:37.492Z,3.40
2022-10-09T04:07:06.115Z,3.50
2022-10-09T04:09:43.014Z,3.90
2022-10-09T04:12:11.982Z,3.90
2022-10-09T04:14:40.392Z,4.13
2022-10-09T04:17:22.483Z,2.80
2022-10-09T04:19:56.134Z,2.97
2022-10-09T04:22:28.126Z,2.80
2022-10-09T04:24:58.924Z,3.80
2022-10-09T04:27:27.465Z,3.97
2022-10-09T04:29:58.283Z,3.63
2022-10-09T04:32:33.251Z,3.40
2022-10-09T04:35:01.856Z,3.70
2022-10-09T04:37:30.333Z,3.87
2022-10-09T04:39:59.226Z,3.83
2022-10-09T04:42:31.742Z,4.00
2022-10-09T04:45:01.996Z,3.40
2022-10-09T04:47:35.646Z,3.53
2022-10-09T04:50:05.113Z,3.30
2022-10-09T04:52:36.418Z,3.13
2022-10-09T04:55:07.743Z,3.00
2022-10-09T04:57:42.271Z,2.80
2022-10-09T05:00:12.215Z,3.30
2022-10-09T05:02:45.327Z,4.00
2022-10-09T05:05:13.993Z,4.53
2022-10-09T05:07:42.763Z,3.90
2022-10-09T05:10:12.350Z,2.70
2022-10-09T05:12:51.453Z,2.73
2022-10-09T05:15:23.680Z,2.80
2022-10-09T05:17:56.450Z,2.77
2022-10-09T05:20:25.336Z,3.47
2022-10-09T05:22:55.946Z,4.17
2022-10-09T05:25:32.030Z,3.67
2022-10-09T05:28:00.688Z,4.50
2022-10-09T05:30:32.563Z,3.70
2022-10-09T05:33:10.389Z,3.40
2022-10-09T05:35:41.868Z,3.20
2022-10-09T05:38:10.365Z,3.47
2022-10-09T05:40:41.353Z,3.70
2022-10-09T05:43:16.160Z,3.57
2022-10-09T05:45:50.762Z,3.60
2022-10-09T05:48:30.960Z,3.20
2022-10-09T05:51:08.797Z,3.97
2022-10-09T05:53:40.582Z,3.57
2022-10-09T05:56:16.555Z,3.60
2022-10-09T05:58:51.341Z,3.67
2022-10-09T06:01:30.421Z,4.00
2022-10-09T06:04:07.164Z,4.03
2022-10-09T06:06:49.770Z,3.77
2022-10-09T06:09:25.050Z,3.97
2022-10-09T06:12:00.096Z,3.50
2022-10-09T06:14:31.979Z,3.90
2022-10-09T06:17:10.517Z,3.60
2022-10-09T06:19:41.288Z,4.00
2022-10-09T06:22:10.073Z,4.00
2022-10-09T06:24:46.288Z,3.70
2022-10-09T06:27:22.511Z,4.60
2022-10-09T06:29:54.543Z,4.90
2022-10-09T06:32:30.900Z,4.90
2022-10-09T06:35:12.169Z,4.80
2022-10-09T06:37:46.137Z,5.27
2022-10-09T06:40:26.270Z,4.40
2022-10-09T06:42:59.077Z,5.37
2022-10-09T06:45:54.337Z,5.00
2022-10-09T06:48:26.655Z,5.23
2022-10-09T06:51:11.210Z,5.70
2022-10-09T06:54:04.256Z,5.37
2022-10-09T07:00:26.956Z,5.80
2022-10-09T07:11:22.560Z,5.73
2022-10-09T07:20:52.213Z,5.70
2022-10-09T07:23:50.881Z,5.80
2022-10-09T07:41:23.297Z,4.80
2022-10-09T08:11:18.816Z,4.23
2022-10-09T08:15:15.146Z,3.70
2022-10-09T08:19:07.026Z,4.07
2022-10-09T08:22:45.753Z,3.90
2022-10-09T08:25:53.816Z,3.77
2022-10-09T08:29:27.330Z,3.70
2022-10-09T08:33:12.514Z,3.87
2022-10-09T08:35:53.549Z,3.27
2022-10-09T08:41:58.386Z,3.00
2022-10-09T08:44:59.010Z,3.10
2022-10-09T08:52:06.155Z,3.00
2022-10-09T09:03:58.334Z,2.80
2022-10-09T09:06:47.041Z,2.90
2022-10-09T09:09:29.246Z,2.90
2022-10-09T09:16:38.395Z,2.70
2022-10-09T09:20:06.132Z,2.80
2022-10-09T09:22:35.625Z,2.37
2022-10-09T09:25:18.691Z,2.67
2022-10-09T09:27:47.772Z,2.60
2022-10-09T09:30:20.071Z,2.57
2022-10-09T09:32:56.672Z,2.63
2022-10-09T09:35:33.979Z,2.40
2022-10-09T09:38:02.556Z,2.67
2022-10-09T09:50:00.990Z,2.20
2022-10-09T09:58:52.729Z,2.30
2022-10-09T10:02:17.662Z,2.00
2022-10-09T10:10:14.549Z,2.13
2022-10-09T10:18:11.829Z,2.10
2022-10-09T10:29:13.636Z,2.03
2022-10-09T10:32:12.055Z,2.17
2022-10-09T10:39:05.912Z,2.00
2022-10-09T10:41:58.424Z,2.10
2022-10-09T10:44:59.576Z,1.90
2022-10-09T10:48:11.561Z,1.83
2022-10-09T10:59:41.050Z,2.07
2022-10-09T11:15:54.345Z,1.83
2022-10-09T11:19:50.121Z,2.10
2022-10-09T11:27:19.132Z,1.90
2022-10-09T11:34:36.541Z,1.90
2022-10-09T11:42:21.108Z,1.90
2022-10-09T11:46:11.782Z,1.90
2022-10-09T11:53:22.830Z,1.60
2022-10-09T11:56:27.513Z,1.83
2022-10-09T11:59:30.454Z,1.80
2022-10-09T12:03:02.534Z,1.70
2022-10-09T12:06:13.596Z,1.63
2022-10-09T12:22:34.861Z,1.80
2022-10-09T12:26:29.354Z,1.70
2022-10-09T12:30:21.499Z,1.80
2022-10-09T12:41:58.453Z,1.83
2022-10-09T13:00:13.241Z,1.37
2022-10-09T13:07:41.366Z,1.40
2022-10-09T13:11:25.597Z,1.30
2022-10-09T13:25:08.532Z,1.67
2022-10-09T13:28:31.595Z,1.63
2022-10-09T13:32:49.433Z,1.70
2022-10-09T13:50:29.493Z,1.53
2022-10-09T13:58:52.870Z,1.70
2022-10-09T14:19:52.849Z,1.63
2022-10-09T14:28:49.220Z,1.37
2022-10-09T14:41:29.129Z,1.50
2022-10-09T14:49:41.619Z,1.40
2022-10-09T15:07:58.567Z,1.50
2022-10-09T15:15:01.255Z,1.50
2022-10-09T15:17:37.828Z,1.67
2022-10-09T15:20:20.770Z,1.60
2022-10-09T15:22:51.195Z,1.50
2022-10-09T15:25:22.791Z,2.03
2022-10-09T15:28:07.971Z,1.47
2022-10-09T15:31:02.819Z,1.57
2022-10-09T15:33:31.512Z,1.40
2022-10-09T15:36:04.204Z,1.50
2022-10-09T15:38:34.444Z,1.47
2022-10-09T15:41:03.435Z,1.83
2022-10-09T15:44:13.494Z,1.50
2022-10-09T15:47:39.210Z,1.40
2022-10-09T15:50:16.404Z,1.57
2022-10-09T15:53:27.064Z,1.80
2022-10-09T15:55:57.976Z,1.43
2022-10-09T15:58:30.166Z,1.43
2022-10-09T16:04:58.754Z,1.47
2022-10-09T16:08:09.821Z,1.60
2022-10-09T16:13:47.103Z,1.60
2022-10-09T16:16:23.478Z,1.50
2022-10-09T16:19:15.512Z,1.50
2022-10-09T16:21:49.026Z,1.90
2022-10-09T16:24:36.145Z,1.50
2022-10-09T16:27:13.952Z,1.43
2022-10-09T16:29:57.580Z,1.50
2022-10-09T16:32:38.529Z,1.50
2022-10-09T16:35:08.834Z,1.73
2022-10-09T16:37:44.992Z,1.70
2022-10-09T16:44:37.178Z,2.27
2022-10-09T16:47:14.513Z,1.80
2022-10-09T16:49:59.697Z,1.60
2022-10-09T16:52:35.051Z,1.77
2022-10-09T16:55:16.479Z,1.80
2022-10-09T16:57:45.719Z,1.70
2022-10-09T17:00:24.290Z,1.43
2022-10-09T17:02:52.873Z,1.70
2022-10-09T17:05:25.662Z,1.60
2022-10-09T17:08:36.024Z,1.77
2022-10-09T17:13:53.631Z,1.60
2022-10-09T17:16:24.797Z,1.70
2022-10-09T17:18:59.272Z,1.73
2022-10-09T17:22:47.612Z,2.03
2022-10-09T17:31:32.948Z,1.80
2022-10-09T17:39:17.235Z,2.10
2022-10-09T17:42:03.790Z,1.93
2022-10-09T17:44:35.125Z,1.47
2022-10-09T17:47:06.472Z,2.00
2022-10-09T17:49:36.941Z,1.70
2022-10-09T17:52:16.027Z,1.70
2022-10-09T17:55:01.946Z,1.83
2022-10-09T17:57:33.385Z,2.30
2022-10-09T18:00:38.071Z,1.97
2022-10-09T18:03:06.482Z,1.90
2022-10-09T18:05:38.690Z,2.00
2022-10-09T18:08:09.695Z,2.20
2022-10-09T18:10:38.722Z,2.33
2022-10-09T18:13:18.411Z,2.30
2022-10-09T18:16:21.118Z,2.57
2022-10-09T18:19:06.133Z,2.30
2022-10-09T18:21:46.623Z,2.63
2022-10-09T18:24:25.249Z,2.67
2022-10-09T18:26:54.731Z,2.60
2022-10-09T18:29:50.148Z,2.73
2022-10-09T18:33:41.211Z,2.80
2022-10-09T18:37:41.913Z,3.00
2022-10-09T18:40:29.588Z,2.83
2022-10-09T18:46:46.326Z,2.90
2022-10-09T18:49:31.317Z,3.30
2022-10-09T18:52:03.472Z,3.30
2022-10-09T18:54:34.312Z,3.23
2022-10-09T18:57:12.894Z,2.90
2022-10-09T19:00:00.106Z,2.70
2022-10-09T19:02:29.394Z,2.60
2022-10-09T19:04:58.258Z,2.90
2022-10-09T19:08:00.903Z,2.30
2022-10-09T19:11:51.751Z,2.47
2022-10-09T19:14:53.388Z,2.97
2022-10-09T19:17:22.470Z,2.80
2022-10-09T19:20:12.174Z,2.70
2022-10-09T19:22:53.420Z,2.70
2022-10-09T19:25:28.285Z,2.70
2022-10-09T19:27:59.558Z,2.77
2022-10-09T19:38:15.625Z,3.10
2022-10-09T19:41:34.948Z,2.90
2022-10-09T19:44:39.439Z,2.90
2022-10-09T19:47:23.802Z,3.17
2022-10-09T19:53:27.547Z,2.93
2022-10-09T19:55:57.599Z,3.90
2022-10-09T19:58:27.933Z,4.23
2022-10-09T20:01:02.678Z,3.83
2022-10-09T20:03:53.957Z,3.37
2022-10-09T20:06:23.136Z,3.87
2022-10-09T20:08:54.115Z,4.30
2022-10-09T20:11:34.857Z,4.30
2022-10-09T20:14:13.670Z,3.53
2022-10-09T20:18:19.883Z,3.77
2022-10-09T20:23:53.464Z,5.27
2022-10-09T20:27:03.893Z,5.30
2022-10-09T20:29:47.930Z,7.97
2022-10-09T20:32:25.052Z,4.70
2022-10-09T20:34:54.270Z,5.83
2022-10-09T20:37:24.584Z,4.20
2022-10-09T20:40:17.408Z,4.27
2022-10-09T20:43:03.344Z,4.53
2022-10-09T20:45:40.186Z,3.60
2022-10-09T20:48:16.639Z,3.67
2022-10-09T20:50:47.807Z,4.10
2022-10-09T20:53:23.149Z,3.40
2022-10-09T20:56:03.958Z,2.60
2022-10-09T20:58:32.737Z,3.50
2022-10-09T21:01:05.730Z,3.87
2022-10-09T21:03:43.468Z,3.57
2022-10-09T21:06:22.641Z,3.60
2022-10-09T21:08:59.864Z,3.40
2022-10-09T21:11:28.910Z,3.57
2022-10-09T21:13:57.888Z,4.13
2022-10-09T21:21:10.722Z,3.37
2022-10-09T21:25:05.060Z,3.50
2022-10-09T21:32:10.715Z,3.20
2022-10-09T21:35:11.865Z,3.60
2022-10-09T21:42:02.131Z,3.20
2022-10-09T21:44:59.957Z,3.23
2022-10-09T21:48:13.045Z,3.50
2022-10-09T21:51:28.576Z,3.63
2022-10-09T22:02:46.841Z,3.17
2022-10-09T22:15:55.318Z,3.50
2022-10-09T22:19:59.586Z,3.50
2022-10-09T22:23:41.485Z,3.60
2022-10-09T22:27:39.898Z,3.57
2022-10-09T22:49:24.507Z,3.03
2022-10-09T23:52:14.689Z,3.40
